Time;durP1;ratioP1;P1;durP2;ratioP2;P2;SDS_P1;SDS_P2;PMS_P1;PMS_P2;Temp;Humidity;BMP_temperature;BMP_pressure;BME280_temperature;BME280_humidity;BME280_pressure;Samples;Min_cycle;Max_cycle;Signal;HPM_P1;HPM_P2
2021/11/28 00:00:28;;;;;;;43.42;26.55;;;4.00;99.90;;;;;;5055325;28;20161;-74
2021/11/28 00:02:54;;;;;;;43.03;24.70;;;4.00;99.90;;;;;;5054724;28;20139;-74
2021/11/28 00:05:23;;;;;;;47.75;26.25;;;4.00;99.90;;;;;;5053740;28;20021;-74
2021/11/28 00:13:12;;;;;;;44.90;24.38;;;4.00;99.90;;;;;;5053133;28;19904;-75
2021/11/28 00:15:38;;;;;;;47.20;26.92;;;3.90;99.90;;;;;;5054230;28;20037;-75
2021/11/28 00:18:05;;;;;;;49.15;26.02;;;4.00;99.90;;;;;;5053804;28;20037;-76
2021/11/28 00:20:31;;;;;;;51.88;26.63;;;3.90;99.90;;;;;;5053629;28;20465;-76
2021/11/28 00:22:57;;;;;;;48.22;25.63;;;4.00;99.90;;;;;;5054044;28;20033;-75
2021/11/28 00:25:22;;;;;;;50.42;26.73;;;4.00;99.90;;;;;;5055058;28;20032;-76
2021/11/28 00:27:50;;;;;;;47.40;25.73;;;3.90;99.90;;;;;;5053401;28;20530;-75
2021/11/28 00:30:19;;;;;;;47.22;27.00;;;4.00;99.90;;;;;;5053905;28;20095;-75
2021/11/28 00:32:45;;;;;;;51.28;26.80;;;3.90;99.90;;;;;;5053096;28;20033;-74
2021/11/28 00:35:13;;;;;;;47.55;26.45;;;4.00;99.90;;;;;;5053507;28;20152;-75
2021/11/28 00:37:42;;;;;;;54.47;26.98;;;3.90;99.90;;;;;;5051550;28;20033;-75
2021/11/28 00:40:08;;;;;;;52.42;26.45;;;3.90;99.90;;;;;;5037277;28;20026;-76
2021/11/28 00:42:34;;;;;;;46.70;26.17;;;4.00;99.90;;;;;;5042307;28;20386;-75
2021/11/28 00:44:59;;;;;;;48.00;24.77;;;4.00;99.90;;;;;;5051718;28;20013;-76
2021/11/28 00:47:25;;;;;;;54.92;27.17;;;4.00;99.90;;;;;;5053377;28;20116;-75
2021/11/28 00:50:23;;;;;;;54.28;26.40;;;4.00;99.90;;;;;;5053587;28;20021;-76
2021/11/28 00:52:50;;;;;;;52.95;25.35;;;4.00;99.90;;;;;;5042614;28;20028;-75
2021/11/28 00:55:15;;;;;;;52.00;25.40;;;4.00;99.90;;;;;;5042472;28;20017;-75
2021/11/28 00:57:41;;;;;;;52.28;27.83;;;4.00;99.90;;;;;;5053599;28;20511;-75
2021/11/28 01:00:09;;;;;;;56.05;27.17;;;3.90;99.90;;;;;;5053243;28;20052;-75
2021/11/28 01:02:36;;;;;;;57.42;27.75;;;3.90;99.90;;;;;;5052618;28;20440;-75
2021/11/28 01:05:04;;;;;;;54.28;27.05;;;3.90;99.90;;;;;;5053470;28;20087;-74
2021/11/28 01:07:30;;;;;;;55.03;27.50;;;3.90;99.90;;;;;;5052564;28;20048;-74
2021/11/28 01:09:56;;;;;;;61.35;27.75;;;3.90;99.90;;;;;;5052831;28;20388;-74
2021/11/28 01:12:22;;;;;;;58.10;28.83;;;3.90;99.90;;;;;;5053508;28;20029;-73
2021/11/28 01:14:49;;;;;;;57.17;29.30;;;3.90;99.90;;;;;;5053109;28;20036;-75
2021/11/28 01:17:15;;;;;;;64.32;29.80;;;3.90;99.90;;;;;;5053281;28;20076;-75
2021/11/28 01:19:41;;;;;;;58.90;28.05;;;3.90;99.90;;;;;;5053518;28;20106;-76
2021/11/28 01:22:10;;;;;;;58.17;29.27;;;3.90;99.90;;;;;;5053098;28;20032;-74
2021/11/28 01:24:36;;;;;;;55.38;28.70;;;3.90;99.90;;;;;;5053602;28;20021;-74
2021/11/28 01:27:05;;;;;;;57.72;28.30;;;3.90;99.90;;;;;;5053133;28;20465;-74
2021/11/28 01:29:31;;;;;;;62.28;30.27;;;3.90;99.90;;;;;;5052403;28;20055;-74
2021/11/28 01:31:58;;;;;;;61.83;30.08;;;3.90;99.90;;;;;;5052668;28;20035;-75
2021/11/28 01:34:24;;;;;;;54.63;27.70;;;4.00;99.90;;;;;;5053348;28;20029;-74
2021/11/28 01:36:50;;;;;;;59.63;28.20;;;4.00;99.90;;;;;;5052682;28;20051;-74
2021/11/28 01:39:16;;;;;;;68.50;30.45;;;3.90;99.90;;;;;;5052825;28;20021;-74
2021/11/28 01:41:42;;;;;;;64.78;29.67;;;3.90;99.90;;;;;;5052685;28;20071;-75
2021/11/28 01:44:08;;;;;;;53.67;28.13;;;3.90;99.90;;;;;;5051838;28;20025;-75
2021/11/28 01:46:33;;;;;;;62.83;28.98;;;3.90;99.90;;;;;;5052458;28;20029;-74
2021/11/28 01:49:00;;;;;;;62.70;29.75;;;3.80;99.90;;;;;;5052844;28;20029;-74
2021/11/28 01:51:27;;;;;;;61.17;29.95;;;3.90;99.90;;;;;;5052407;28;20052;-74
2021/11/28 01:53:54;;;;;;;67.15;30.35;;;3.90;99.90;;;;;;5052215;28;20096;-75
2021/11/28 01:56:21;;;;;;;56.90;28.33;;;3.90;99.90;;;;;;5053008;28;20033;-75
2021/11/28 01:58:47;;;;;;;65.38;30.42;;;3.90;99.90;;;;;;5052199;28;20069;-74
2021/11/28 02:01:18;;;;;;;58.17;28.70;;;4.00;99.90;;;;;;5052160;28;20021;-75
2021/11/28 02:03:45;;;;;;;59.75;29.10;;;3.90;99.90;;;;;;5052350;28;20465;-74
2021/11/28 02:06:13;;;;;;;67.03;29.73;;;3.90;99.90;;;;;;5051771;28;20501;-74
2021/11/28 02:08:40;;;;;;;66.85;30.23;;;3.90;99.90;;;;;;5052866;28;20108;-75
2021/11/28 02:11:07;;;;;;;62.72;31.05;;;3.90;99.90;;;;;;5051633;28;20055;-74
2021/11/28 02:13:33;;;;;;;60.42;30.00;;;4.00;99.90;;;;;;5052428;28;20107;-74
2021/11/28 02:15:59;;;;;;;66.47;30.55;;;3.90;99.90;;;;;;5052230;28;20055;-74
2021/11/28 02:18:26;;;;;;;71.18;29.42;;;4.00;99.90;;;;;;5051705;28;20024;-75
2021/11/28 02:20:58;;;;;;;63.15;28.83;;;3.90;99.90;;;;;;5052387;28;20021;-75
2021/11/28 02:23:24;;;;;;;62.80;29.55;;;3.90;99.90;;;;;;5052628;28;20029;-75
2021/11/28 02:25:54;;;;;;;68.15;29.27;;;3.90;99.90;;;;;;5052969;28;20021;-75
2021/11/28 02:28:20;;;;;;;60.60;28.92;;;3.90;99.90;;;;;;5052870;28;20550;-75
2021/11/28 02:30:46;;;;;;;66.13;29.23;;;3.90;99.90;;;;;;5051902;28;20108;-75
2021/11/28 02:33:11;;;;;;;62.95;29.05;;;3.90;99.90;;;;;;5050897;28;20113;-74
2021/11/28 02:35:37;;;;;;;59.05;28.17;;;4.00;99.90;;;;;;5052055;28;20060;-74
2021/11/28 02:38:05;;;;;;;66.43;29.73;;;4.00;99.90;;;;;;5051490;28;20381;-75
2021/11/28 02:40:32;;;;;;;67.13;29.52;;;3.90;99.90;;;;;;5051697;28;20029;-74
2021/11/28 02:42:58;;;;;;;69.65;29.08;;;3.90;99.90;;;;;;5049668;28;20079;-75
2021/11/28 02:45:29;;;;;;;68.90;30.13;;;3.90;99.90;;;;;;5040380;28;20408;-75
2021/11/28 02:47:57;;;;;;;64.68;30.50;;;3.90;99.90;;;;;;5050260;28;20039;-75
2021/11/28 02:50:23;;;;;;;69.95;30.30;;;3.90;99.90;;;;;;5046320;28;20026;-75
2021/11/28 02:52:54;;;;;;;65.55;31.50;;;4.50;99.90;;;;;;5050043;28;20075;-74
2021/11/28 02:55:27;;;;;;;74.93;31.20;;;3.90;99.90;;;;;;5050957;28;20029;-75
2021/11/28 02:57:55;;;;;;;71.82;31.27;;;3.90;99.90;;;;;;5051580;28;20436;-74
2021/11/28 03:00:22;;;;;;;62.58;29.20;;;3.80;99.90;;;;;;5050983;28;20050;-75
2021/11/28 03:02:48;;;;;;;71.15;31.25;;;3.90;99.90;;;;;;5052106;28;20112;-74
2021/11/28 03:05:14;;;;;;;71.90;32.53;;;3.90;99.90;;;;;;5051546;28;20064;-75
2021/11/28 03:07:40;;;;;;;69.38;30.98;;;3.90;99.90;;;;;;5050703;28;20102;-75
2021/11/28 03:10:29;;;;;;;62.08;31.98;;;3.90;99.90;;;;;;5051240;28;20049;-75
2021/11/28 03:12:55;;;;;;;65.75;29.92;;;3.90;99.90;;;;;;5051166;28;20445;-76
2021/11/28 03:15:22;;;;;;;69.13;30.42;;;3.90;99.90;;;;;;5057159;28;20021;-76
2021/11/28 03:17:48;;;;;;;64.30;30.00;;;4.00;99.90;;;;;;5052931;28;20090;-73
2021/11/28 03:20:15;;;;;;;69.32;31.65;;;4.00;99.90;;;;;;5051683;28;20431;-74
2021/11/28 03:22:48;;;;;;;64.28;29.55;;;4.00;99.90;;;;;;5051237;28;20064;-75
2021/11/28 03:25:19;;;;;;;66.22;30.48;;;4.00;99.90;;;;;;5055366;28;20112;-75
2021/11/28 03:27:48;;;;;;;67.07;31.60;;;4.00;99.90;;;;;;5053404;28;20082;-76
2021/11/28 03:30:17;;;;;;;63.28;31.67;;;4.00;99.90;;;;;;5056660;28;20033;-76
2021/11/28 03:32:42;;;;;;;65.28;31.52;;;4.00;99.90;;;;;;5058923;28;20480;-75
2021/11/28 03:35:08;;;;;;;65.75;30.80;;;4.00;99.90;;;;;;5055041;28;20020;-74
2021/11/28 03:37:34;;;;;;;58.13;29.52;;;4.00;99.90;;;;;;5054896;28;20141;-74
2021/11/28 03:40:02;;;;;;;59.78;29.95;;;4.00;99.90;;;;;;5055041;28;20481;-74
2021/11/28 03:42:28;;;;;;;55.20;27.80;;;4.00;99.90;;;;;;5054141;28;20477;-75
2021/11/28 03:44:53;;;;;;;60.45;30.30;;;3.90;99.90;;;;;;5054680;28;20039;-74
2021/11/28 03:47:19;;;;;;;64.00;30.77;;;3.90;99.90;;;;;;5054768;28;20475;-74
2021/11/28 03:49:45;;;;;;;58.92;28.48;;;4.00;99.90;;;;;;5054432;28;20048;-75
2021/11/28 03:52:10;;;;;;;58.15;28.13;;;3.90;99.90;;;;;;5054640;28;20029;-75
2021/11/28 03:54:36;;;;;;;61.10;30.63;;;3.90;99.90;;;;;;5055287;28;20469;-75
2021/11/28 03:57:02;;;;;;;62.65;29.75;;;3.90;99.90;;;;;;5053775;28;20082;-73
2021/11/28 03:59:28;;;;;;;62.47;30.45;;;3.90;99.90;;;;;;5054443;28;20021;-74
2021/11/28 04:01:54;;;;;;;58.35;28.85;;;3.90;99.90;;;;;;5054112;28;20104;-75
2021/11/28 04:04:20;;;;;;;58.45;28.70;;;3.90;99.90;;;;;;5054148;28;20508;-74
2021/11/28 04:06:45;;;;;;;61.38;30.00;;;3.80;99.90;;;;;;5054367;28;20049;-74
2021/11/28 04:09:12;;;;;;;53.28;28.63;;;3.70;99.90;;;;;;5054233;28;20021;-75
2021/11/28 04:11:38;;;;;;;54.55;28.27;;;3.70;99.90;;;;;;5054378;28;20084;-75
2021/11/28 04:14:03;;;;;;;52.60;28.80;;;3.60;99.90;;;;;;5054172;28;20536;-74
2021/11/28 04:16:29;;;;;;;61.97;28.25;;;3.60;99.90;;;;;;5054099;28;20033;-75
2021/11/28 04:18:55;;;;;;;52.00;26.50;;;3.60;99.90;;;;;;5053472;28;20023;-76
2021/11/28 04:21:27;;;;;;;45.10;25.60;;;3.60;99.90;;;;;;5054321;28;20047;-76
2021/11/28 04:23:53;;;;;;;49.95;27.00;;;3.60;99.90;;;;;;5054182;28;20025;-74
2021/11/28 04:26:19;;;;;;;56.42;28.50;;;3.60;99.90;;;;;;5053534;28;20027;-74
2021/11/28 04:28:45;;;;;;;56.15;27.10;;;3.60;99.90;;;;;;5053961;28;20028;-74
2021/11/28 04:31:14;;;;;;;60.85;28.65;;;3.60;99.90;;;;;;5053934;28;20024;-75
2021/11/28 04:33:40;;;;;;;52.92;27.02;;;3.70;99.90;;;;;;5053241;28;20021;-74
2021/11/28 04:36:06;;;;;;;48.13;27.10;;;3.60;99.90;;;;;;5053638;28;20025;-74
2021/11/28 04:38:32;;;;;;;56.53;30.00;;;3.70;99.90;;;;;;5053823;28;20541;-74
2021/11/28 04:40:58;;;;;;;57.50;29.50;;;3.60;99.90;;;;;;5052697;28;20029;-75
2021/11/28 04:43:24;;;;;;;57.85;30.27;;;3.60;99.90;;;;;;5052641;28;20033;-74
2021/11/28 04:45:49;;;;;;;55.08;29.23;;;3.60;99.90;;;;;;5053119;28;20057;-75
2021/11/28 04:48:15;;;;;;;58.38;30.25;;;3.60;99.90;;;;;;5053662;28;20036;-75
2021/11/28 04:50:41;;;;;;;50.55;28.42;;;3.50;99.90;;;;;;5054369;28;20021;-75
2021/11/28 04:53:07;;;;;;;55.10;29.08;;;3.50;99.90;;;;;;5053036;28;20017;-74
2021/11/28 04:55:32;;;;;;;56.08;29.80;;;3.50;99.90;;;;;;5053726;28;20111;-75
2021/11/28 04:57:58;;;;;;;51.88;28.33;;;3.50;99.90;;;;;;5053134;28;20138;-74
2021/11/28 05:00:25;;;;;;;56.95;30.15;;;3.40;99.90;;;;;;5052401;28;20461;-74
2021/11/28 05:02:51;;;;;;;56.55;29.58;;;3.30;99.90;;;;;;5056639;28;20028;-75
2021/11/28 05:05:18;;;;;;;55.92;29.48;;;3.30;99.90;;;;;;5053747;28;20428;-75
2021/11/28 05:07:43;;;;;;;56.67;30.55;;;3.30;99.90;;;;;;5052480;28;20441;-75
2021/11/28 05:10:12;;;;;;;52.20;27.20;;;3.20;99.90;;;;;;5053596;28;20112;-75
2021/11/28 05:12:38;;;;;;;53.50;28.05;;;3.10;99.90;;;;;;5053222;28;20864;-75
2021/11/28 05:15:04;;;;;;;48.72;28.08;;;3.00;99.90;;;;;;5052083;28;20469;-75
2021/11/28 05:17:30;;;;;;;47.90;26.15;;;2.90;99.90;;;;;;5056104;28;20033;-74
2021/11/28 05:19:55;;;;;;;50.00;25.63;;;2.80;99.90;;;;;;5055109;28;20028;-75
2021/11/28 05:22:21;;;;;;;45.22;25.42;;;2.80;99.90;;;;;;5052760;28;20037;-75
2021/11/28 05:24:50;;;;;;;52.30;26.45;;;2.60;99.90;;;;;;5053354;28;20036;-76
2021/11/28 05:27:17;;;;;;;52.95;26.77;;;2.60;99.90;;;;;;5058075;28;20500;-75
2021/11/28 05:29:42;;;;;;;50.40;27.23;;;2.70;99.90;;;;;;5058354;28;20431;-75
2021/11/28 05:32:08;;;;;;;46.90;25.17;;;2.70;99.90;;;;;;5057204;28;20017;-75
2021/11/28 05:34:34;;;;;;;43.75;24.15;;;2.60;99.90;;;;;;5054133;28;20017;-75
2021/11/28 05:37:00;;;;;;;46.55;24.00;;;2.50;99.90;;;;;;5051820;28;20050;-74
2021/11/28 05:39:25;;;;;;;51.67;25.17;;;2.40;99.90;;;;;;5052770;28;20060;-75
2021/11/28 05:41:51;;;;;;;52.83;27.23;;;2.50;99.90;;;;;;5052536;28;20912;-76
2021/11/28 05:44:16;;;;;;;52.00;26.70;;;2.50;99.90;;;;;;5051982;28;20670;-74
2021/11/28 05:46:42;;;;;;;51.47;25.95;;;2.50;99.90;;;;;;5051579;28;20080;-76
2021/11/28 05:49:07;;;;;;;46.38;24.02;;;2.60;99.90;;;;;;5051650;28;20467;-74
2021/11/28 05:51:33;;;;;;;43.88;22.90;;;2.50;99.90;;;;;;5052152;28;20112;-74
2021/11/28 05:53:59;;;;;;;42.25;23.10;;;2.40;99.90;;;;;;5051790;28;20094;-74
2021/11/28 05:56:24;;;;;;;43.03;23.10;;;2.30;99.90;;;;;;5052152;28;20124;-74
2021/11/28 05:58:50;;;;;;;44.72;22.30;;;2.20;99.90;;;;;;5053055;28;20032;-75
2021/11/28 06:01:16;;;;;;;51.42;23.33;;;2.20;99.90;;;;;;5052563;28;20067;-76
2021/11/28 06:03:41;;;;;;;43.70;23.02;;;2.10;99.90;;;;;;5051742;28;20104;-74
2021/11/28 06:06:07;;;;;;;46.15;22.05;;;2.10;99.90;;;;;;5051885;28;20060;-75
2021/11/28 06:08:33;;;;;;;46.17;22.48;;;2.00;99.90;;;;;;5052569;28;20028;-75
2021/11/28 06:10:58;;;;;;;43.65;21.65;;;2.00;99.90;;;;;;5052345;28;20017;-74
2021/11/28 06:13:24;;;;;;;44.78;22.23;;;2.00;99.90;;;;;;5052847;28;20067;-75
2021/11/28 06:15:49;;;;;;;38.25;21.15;;;2.00;99.90;;;;;;5052436;28;20033;-74
2021/11/28 06:18:15;;;;;;;41.78;20.30;;;2.00;99.90;;;;;;5051093;28;20496;-75
2021/11/28 06:20:40;;;;;;;43.25;20.90;;;2.00;99.90;;;;;;5052165;28;20017;-74
2021/11/28 06:23:06;;;;;;;44.13;22.00;;;2.00;99.90;;;;;;5052008;28;20029;-74
2021/11/28 06:25:32;;;;;;;34.70;19.65;;;2.00;99.90;;;;;;5051853;28;20021;-75
2021/11/28 06:27:58;;;;;;;33.28;19.23;;;1.90;99.90;;;;;;5052179;28;20350;-75
2021/11/28 06:30:23;;;;;;;38.33;20.63;;;1.90;99.90;;;;;;5052423;28;20029;-75
2021/11/28 06:32:49;;;;;;;38.50;20.80;;;1.90;99.90;;;;;;5051339;28;20492;-74
2021/11/28 06:35:15;;;;;;;44.25;22.73;;;1.90;99.90;;;;;;5051869;28;20020;-75
2021/11/28 06:37:41;;;;;;;44.08;21.63;;;1.90;99.90;;;;;;5052158;28;20028;-75
2021/11/28 06:40:07;;;;;;;40.95;20.13;;;1.80;99.90;;;;;;5050057;28;20096;-75
2021/11/28 06:42:33;;;;;;;38.95;19.73;;;1.80;99.90;;;;;;5049329;28;20541;-75
2021/11/28 06:44:59;;;;;;;35.00;18.98;;;1.80;99.90;;;;;;5050937;28;20108;-75
2021/11/28 06:47:24;;;;;;;44.22;21.73;;;1.80;99.90;;;;;;5050774;28;20029;-75
2021/11/28 06:49:50;;;;;;;35.00;19.10;;;1.80;99.90;;;;;;5050739;28;20372;-74
2021/11/28 06:52:15;;;;;;;40.42;21.58;;;1.80;99.90;;;;;;5050302;28;20393;-75
2021/11/28 06:54:41;;;;;;;39.03;21.20;;;1.80;99.90;;;;;;5051014;28;20063;-75
2021/11/28 06:57:07;;;;;;;40.20;21.02;;;1.80;99.90;;;;;;5049895;28;20116;-75
2021/11/28 06:59:33;;;;;;;40.05;20.80;;;1.80;99.90;;;;;;5045730;28;20025;-75
2021/11/28 07:01:59;;;;;;;45.03;21.30;;;1.80;99.90;;;;;;5035977;28;20484;-74
2021/11/28 07:04:24;;;;;;;34.67;18.98;;;1.80;99.90;;;;;;5041389;28;20025;-76
2021/11/28 07:06:50;;;;;;;34.70;17.67;;;1.80;99.90;;;;;;5051848;28;20048;-76
2021/11/28 07:09:15;;;;;;;30.58;17.35;;;1.80;99.90;;;;;;5053031;28;20110;-74
2021/11/28 07:11:41;;;;;;;28.23;16.48;;;1.80;99.90;;;;;;5053348;28;20025;-74
2021/11/28 07:14:07;;;;;;;19.60;12.68;;;1.80;99.90;;;;;;5050077;28;20021;-76
2021/11/28 07:16:33;;;;;;;19.27;9.75;;;1.80;99.90;;;;;;5054028;28;20065;-76
2021/11/28 07:18:58;;;;;;;12.07;9.98;;;1.70;99.90;;;;;;5054844;28;20017;-75
2021/11/28 07:21:24;;;;;;;95.78;14.45;;;1.70;99.90;;;;;;5054068;28;20029;-75
2021/11/28 07:23:49;;;;;;;25.63;14.73;;;1.70;99.90;;;;;;5053489;28;20025;-75
2021/11/28 07:26:16;;;;;;;36.97;16.73;;;1.60;99.90;;;;;;5053034;28;20029;-75
2021/11/28 07:28:43;;;;;;;34.78;17.45;;;1.60;99.90;;;;;;5054757;28;20079;-75
2021/11/28 07:31:08;;;;;;;36.47;17.10;;;1.70;99.90;;;;;;5056658;28;20031;-74
2021/11/28 07:33:37;;;;;;;38.13;18.90;;;1.70;99.90;;;;;;5057376;28;20025;-74
2021/11/28 07:36:07;;;;;;;30.98;17.30;;;1.70;99.90;;;;;;5057329;28;20033;-77
2021/11/28 07:38:34;;;;;;;33.97;19.08;;;1.80;99.90;;;;;;5051986;28;20037;-76
2021/11/28 07:41:00;;;;;;;31.33;17.42;;;1.80;99.90;;;;;;5052993;28;20028;-75
2021/11/28 07:43:25;;;;;;;34.75;18.60;;;1.90;99.90;;;;;;5052647;28;20025;-76
2021/11/28 07:45:51;;;;;;;34.15;18.20;;;2.00;99.90;;;;;;5052110;28;20024;-75
2021/11/28 07:48:17;;;;;;;46.08;20.10;;;2.10;99.90;;;;;;5052913;28;20099;-75
2021/11/28 07:50:42;;;;;;;41.10;21.45;;;2.20;99.90;;;;;;5052824;28;20397;-76
2021/11/28 07:53:08;;;;;;;36.33;19.92;;;2.30;99.90;;;;;;5052805;28;20032;-76
2021/11/28 07:55:33;;;;;;;42.17;20.83;;;2.40;99.90;;;;;;5052941;28;20504;-76
2021/11/28 07:58:00;;;;;;;42.60;21.08;;;2.50;99.90;;;;;;5052157;28;20397;-76
2021/11/28 08:00:26;;;;;;;41.95;20.98;;;2.60;99.90;;;;;;5050992;28;20036;-76
2021/11/28 08:02:52;;;;;;;46.83;22.60;;;2.70;99.90;;;;;;5051806;28;20025;-76
2021/11/28 08:05:17;;;;;;;48.05;22.55;;;2.80;99.90;;;;;;5052559;28;20021;-76
2021/11/28 08:07:43;;;;;;;49.45;23.38;;;3.00;99.90;;;;;;5052186;28;20438;-71
2021/11/28 08:10:09;;;;;;;54.17;24.75;;;3.10;99.90;;;;;;5055763;28;20457;-78
2021/11/28 08:12:34;;;;;;;50.28;24.65;;;3.20;99.90;;;;;;5053232;28;20036;-78
2021/11/28 08:15:01;;;;;;;46.38;23.63;;;3.40;99.90;;;;;;5050526;28;20049;-77
2021/11/28 08:17:27;;;;;;;42.50;22.35;;;3.40;99.90;;;;;;5041439;28;20371;-79
2021/11/28 08:19:53;;;;;;;35.30;20.08;;;3.40;99.90;;;;;;5044057;28;20043;-78
2021/11/28 08:22:19;;;;;;;36.47;20.63;;;3.50;99.90;;;;;;5043775;28;20029;-77
2021/11/28 08:24:44;;;;;;;38.90;20.58;;;3.50;99.90;;;;;;5044089;28;20021;-81
2021/11/28 08:27:10;;;;;;;38.30;20.73;;;3.50;99.90;;;;;;5052082;28;20048;-80
2021/11/28 08:29:37;;;;;;;43.05;23.63;;;3.60;99.90;;;;;;5051449;28;20017;-81
2021/11/28 08:32:03;;;;;;;37.80;21.48;;;3.70;99.90;;;;;;5050389;28;20481;-80
2021/11/28 08:34:28;;;;;;;37.78;20.58;;;3.70;99.90;;;;;;5052393;28;20036;-80
2021/11/28 08:36:54;;;;;;;38.53;20.63;;;3.70;99.90;;;;;;5052071;28;20036;-81
2021/11/28 08:39:20;;;;;;;37.92;19.45;;;3.70;99.90;;;;;;5052145;28;20116;-82
2021/11/28 08:41:45;;;;;;;33.92;19.75;;;3.70;99.90;;;;;;5052144;28;20081;-78
2021/11/28 08:44:11;;;;;;;32.08;19.30;;;3.70;99.90;;;;;;5052329;28;20048;-81
2021/11/28 08:46:39;;;;;;;36.42;20.27;;;3.60;99.90;;;;;;5046183;28;20036;-79
2021/11/28 08:49:05;;;;;;;37.88;20.75;;;3.70;99.90;;;;;;5038283;28;20052;-74
2021/11/28 08:51:31;;;;;;;36.20;19.40;;;3.50;99.90;;;;;;5049015;28;20033;-80
2021/11/28 08:53:58;;;;;;;41.45;20.83;;;3.50;99.90;;;;;;5049798;28;20017;-79
2021/11/28 08:56:24;;;;;;;41.80;22.75;;;3.50;99.90;;;;;;5049765;28;20551;-81
2021/11/28 08:58:51;;;;;;;45.92;20.73;;;3.50;99.90;;;;;;5051461;28;20036;-80
2021/11/28 09:01:17;;;;;;;39.35;21.67;;;3.50;99.90;;;;;;5048711;28;20029;-80
2021/11/28 09:03:42;;;;;;;40.58;20.85;;;3.50;99.90;;;;;;5052209;28;20032;-80
2021/11/28 09:06:08;;;;;;;38.88;21.20;;;3.50;99.90;;;;;;5053729;28;20041;-80
2021/11/28 09:08:37;;;;;;;43.15;21.05;;;3.60;99.90;;;;;;5052158;28;20021;-76
2021/11/28 09:11:04;;;;;;;46.28;23.17;;;3.60;99.90;;;;;;5050915;28;20049;-79
2021/11/28 09:13:34;;;;;;;34.97;19.80;;;3.60;99.90;;;;;;5051508;28;20044;-75
2021/11/28 09:16:01;;;;;;;43.73;22.87;;;3.70;99.90;;;;;;5050237;28;20488;-78
2021/11/28 09:18:33;;;;;;;39.40;20.85;;;3.80;99.90;;;;;;5046603;28;20417;-78
2021/11/28 09:21:00;;;;;;;40.10;21.77;;;3.90;99.90;;;;;;5047785;28;20635;-78
2021/11/28 09:26:11;;;;;;;42.45;21.95;;;4.00;99.90;;;;;;5050585;28;20191;-76
2021/11/28 09:28:38;;;;;;;45.30;23.83;;;4.00;99.90;;;;;;5049951;28;20555;-76
2021/11/28 09:31:05;;;;;;;45.55;22.27;;;4.10;99.90;;;;;;5049137;28;20433;-76
2021/11/28 09:33:31;;;;;;;40.42;20.48;;;4.20;99.90;;;;;;5051019;28;20613;-75
2021/11/28 09:35:57;;;;;;;40.35;21.23;;;4.20;99.90;;;;;;5051712;28;20108;-76
2021/11/28 09:38:22;;;;;;;35.55;19.15;;;4.20;99.90;;;;;;5052374;28;20009;-79
2021/11/28 09:40:50;;;;;;;32.85;16.65;;;4.20;99.90;;;;;;5053074;28;20021;-77
2021/11/28 09:43:16;;;;;;;34.15;17.13;;;4.30;99.90;;;;;;5051991;28;20024;-78
2021/11/28 09:45:44;;;;;;;25.58;13.52;;;4.30;99.90;;;;;;5050581;28;20021;-79
2021/11/28 09:48:11;;;;;;;13.23;7.57;;;4.40;99.90;;;;;;5049989;28;20075;-79
2021/11/28 09:50:37;;;;;;;8.88;5.75;;;4.50;99.90;;;;;;5050832;28;20108;-79
2021/11/28 09:53:04;;;;;;;7.78;5.95;;;4.50;99.90;;;;;;5051333;28;20029;-79
2021/11/28 09:55:31;;;;;;;6.53;5.63;;;4.60;99.90;;;;;;5050284;28;20087;-79
2021/11/28 09:57:57;;;;;;;6.75;4.88;;;4.60;99.90;;;;;;5048920;28;20499;-79
2021/11/28 10:00:23;;;;;;;6.43;3.67;;;4.60;99.90;;;;;;5050463;28;20111;-78
2021/11/28 10:02:49;;;;;;;1.80;1.50;;;4.60;99.90;;;;;;5049072;28;20056;-78
2021/11/28 10:05:16;;;;;;;0.88;0.82;;;4.50;99.90;;;;;;5049359;28;20100;-79
2021/11/28 10:07:44;;;;;;;0.70;0.65;;;4.30;99.90;;;;;;5050015;28;20037;-79
2021/11/28 10:10:11;;;;;;;2.55;0.85;;;4.30;99.90;;;;;;5048932;28;20099;-80
2021/11/28 10:12:44;;;;;;;0.80;0.60;;;4.20;99.90;;;;;;5047660;28;20036;-80
2021/11/28 10:15:13;;;;;;;0.85;0.60;;;4.10;99.90;;;;;;5049306;28;20072;-80
2021/11/28 10:17:40;;;;;;;1.30;0.57;;;4.00;99.90;;;;;;5047613;28;20610;-80
2021/11/28 10:20:15;;;;;;;1.55;0.80;;;4.00;99.90;;;;;;5048459;28;20037;-81
2021/11/28 10:22:41;;;;;;;0.40;0.40;;;3.90;99.90;;;;;;5047359;28;20025;-81
2021/11/28 10:25:15;;;;;;;0.80;0.55;;;3.90;99.90;;;;;;5048313;28;20028;-81
2021/11/28 10:27:45;;;;;;;0.45;0.45;;;4.00;99.90;;;;;;5050523;28;20362;-83
2021/11/28 10:30:17;;;;;;;0.50;0.50;;;3.90;99.90;;;;;;5052476;28;20098;-83
2021/11/28 10:32:49;;;;;;;2.35;0.63;;;3.90;99.90;;;;;;5053589;28;20040;-83
2021/11/28 10:35:19;;;;;;;0.73;0.68;;;3.80;99.90;;;;;;5050279;28;20013;-82
2021/11/28 10:37:48;;;;;;;0.60;0.60;;;3.90;99.90;;;;;;5048532;28;20534;-83
2021/11/28 10:40:19;;;;;;;0.68;0.68;;;3.90;99.90;;;;;;5050094;28;20407;-81
2021/11/28 10:42:48;;;;;;;0.63;0.50;;;3.90;99.90;;;;;;5058323;28;20112;-83
2021/11/28 10:45:17;;;;;;;1.58;0.60;;;3.90;99.90;;;;;;5059059;28;20065;-82
2021/11/28 10:47:51;;;;;;;1.92;0.70;;;3.80;99.90;;;;;;5057452;28;20195;-82
2021/11/28 10:50:22;;;;;;;0.43;0.43;;;3.90;99.90;;;;;;5055427;28;20029;-82
2021/11/28 10:53:01;;;;;;;0.40;0.40;;;3.80;99.90;;;;;;5055161;28;20481;-81
2021/11/28 10:55:31;;;;;;;1.55;0.40;;;3.90;99.90;;;;;;5055847;28;20556;-82
2021/11/28 10:58:38;;;;;;;1.95;0.35;;;3.80;99.90;;;;;;5055569;28;20036;-81
2021/11/28 11:01:07;;;;;;;0.75;0.40;;;3.90;99.90;;;;;;5051259;28;20040;-82
2021/11/28 11:03:38;;;;;;;0.65;0.30;;;3.90;99.90;;;;;;5055606;28;20017;-82
2021/11/28 11:06:17;;;;;;;1.50;0.40;;;3.90;99.90;;;;;;5058164;28;20075;-82
2021/11/28 11:08:44;;;;;;;0.75;0.32;;;3.90;99.90;;;;;;5055090;28;20025;-83
2021/11/28 11:11:13;;;;;;;1.83;0.40;;;3.90;99.90;;;;;;5057185;28;20074;-83
2021/11/28 11:13:54;;;;;;;0.75;0.38;;;4.00;99.90;;;;;;5064874;28;20013;-82
2021/11/28 11:16:32;;;;;;;;;;;4.10;99.90;;;;;;5062414;28;20033;-83
2021/11/28 11:19:24;;;;;;;1.35;0.50;;;4.10;99.90;;;;;;5053802;28;19913;-83
2021/11/28 11:22:06;;;;;;;0.30;0.30;;;4.10;99.90;;;;;;5058748;28;20017;-81
2021/11/28 11:24:33;;;;;;;1.85;0.38;;;4.10;99.90;;;;;;5065640;28;20071;-81
2021/11/28 11:27:10;;;;;;;1.30;0.40;;;4.10;99.90;;;;;;5064615;28;20024;-83
2021/11/28 11:29:36;;;;;;;0.68;0.30;;;4.10;99.90;;;;;;5060133;28;20044;-83
2021/11/28 11:32:08;;;;;;;1.02;0.38;;;4.10;99.90;;;;;;5066493;28;20017;-83
2021/11/28 11:34:34;;;;;;;1.10;0.40;;;4.10;99.90;;;;;;5061549;28;20013;-83
2021/11/28 11:37:12;;;;;;;0.77;0.38;;;4.20;99.90;;;;;;5062365;28;20044;-83
2021/11/28 11:39:39;;;;;;;0.25;0.25;;;4.20;99.90;;;;;;5057890;28;20037;-83
2021/11/28 11:42:05;;;;;;;1.65;0.28;;;4.30;99.90;;;;;;5053389;28;20025;-83
2021/11/28 11:44:31;;;;;;;1.30;0.57;;;4.30;99.90;;;;;;5056224;28;20025;-83
2021/11/28 11:46:58;;;;;;;0.43;0.32;;;4.30;99.90;;;;;;5055044;28;20040;-84
2021/11/28 11:49:27;;;;;;;1.40;0.40;;;4.30;99.90;;;;;;5054271;28;20032;-84
2021/11/28 11:51:53;;;;;;;1.38;0.55;;;4.20;99.90;;;;;;5054096;28;20099;-83
2021/11/28 11:54:24;;;;;;;0.88;0.60;;;4.30;99.90;;;;;;5054445;28;20106;-84
2021/11/28 11:57:09;;;;;;;1.90;0.70;;;4.40;99.90;;;;;;5054131;28;20025;-83
2021/11/28 11:59:50;;;;;;;1.23;0.30;;;4.30;99.90;;;;;;5057368;28;20032;-83
2021/11/28 12:02:33;;;;;;;1.58;0.50;;;4.40;99.90;;;;;;5052830;28;20068;-83
2021/11/28 12:05:00;;;;;;;2.17;0.50;;;4.40;99.90;;;;;;5052074;28;20400;-83
2021/11/28 12:07:59;;;;;;;1.02;0.50;;;4.30;99.90;;;;;;5056324;28;20382;-81
2021/11/28 12:10:32;;;;;;;1.63;0.80;;;4.40;99.90;;;;;;5038667;28;20029;-82
2021/11/28 12:13:01;;;;;;;2.80;0.70;;;4.40;99.90;;;;;;5054467;28;20036;-82
2021/11/28 12:15:40;;;;;;;0.75;0.75;;;4.30;99.90;;;;;;5053628;28;20461;-84
2021/11/28 12:18:08;;;;;;;0.70;0.70;;;4.30;99.90;;;;;;5052439;28;20033;-83
2021/11/28 12:20:48;;;;;;;1.42;1.15;;;4.30;99.90;;;;;;5052636;28;20034;-84
2021/11/28 12:23:43;;;;;;;1.50;0.82;;;4.30;99.90;;;;;;5052445;28;20087;-83
2021/11/28 12:26:27;;;;;;;1.38;1.00;;;4.20;99.90;;;;;;5058539;28;20060;-81
2021/11/28 12:28:55;;;;;;;1.38;0.85;;;4.20;99.90;;;;;;5058995;28;20025;-82
2021/11/28 12:31:29;;;;;;;1.33;1.20;;;4.20;99.90;;;;;;5054572;28;20033;-82
2021/11/28 12:33:54;;;;;;;2.40;1.80;;;4.30;99.90;;;;;;5056350;28;20059;-81
2021/11/28 12:36:36;;;;;;;3.40;2.10;;;4.30;99.90;;;;;;5054099;28;20683;-82
2021/11/28 12:39:05;;;;;;;4.85;2.05;;;4.30;99.90;;;;;;5045146;28;20095;-82
2021/11/28 12:41:47;;;;;;;1.60;1.50;;;4.40;99.90;;;;;;5047605;28;20049;-81
2021/11/28 12:44:13;;;;;;;3.80;3.08;;;4.40;99.90;;;;;;5053635;28;20055;-83
2021/11/28 12:46:50;;;;;;;2.83;2.38;;;4.40;99.90;;;;;;5058394;28;20019;-82
2021/11/28 12:49:44;;;;;;;3.83;2.53;;;4.50;99.90;;;;;;5044942;28;20078;-82
2021/11/28 12:52:32;;;;;;;3.38;2.10;;;4.40;99.90;;;;;;5043232;28;20384;-82
2021/11/28 12:55:07;;;;;;;1.45;1.30;;;4.50;99.90;;;;;;5051527;28;20017;-82